createdAt,value
2023-02-21T00:02:04.263Z,4.22
2023-02-21T00:04:49.885Z,4.60
2023-02-21T00:07:36.205Z,5.32
2023-02-21T00:10:22.684Z,5.28
2023-02-21T00:13:08.574Z,6.10
2023-02-21T00:15:54.442Z,5.97
2023-02-21T00:18:40.888Z,4.68
2023-02-21T00:21:26.590Z,3.70
2023-02-21T00:24:12.566Z,3.65
2023-02-21T00:26:58.493Z,3.95
2023-02-21T00:29:45.250Z,4.32
2023-02-21T00:32:31.172Z,8.52
2023-02-21T00:35:17.187Z,8.73
2023-02-21T00:38:02.961Z,6.50
2023-02-21T00:40:49.054Z,5.15
2023-02-21T00:43:36.704Z,3.55
2023-02-21T00:46:22.909Z,4.57
2023-02-21T00:49:08.653Z,6.60
2023-02-21T00:51:54.756Z,4.85
2023-02-21T00:54:40.834Z,7.30
2023-02-21T00:57:26.378Z,3.42
2023-02-21T01:00:12.351Z,7.60
2023-02-21T01:02:57.809Z,5.32
2023-02-21T01:05:43.560Z,7.90
2023-02-21T01:08:29.280Z,2.50
2023-02-21T01:11:15.201Z,2.53
2023-02-21T01:14:02.745Z,7.57
2023-02-21T01:16:50.402Z,5.13
2023-02-21T01:19:37.126Z,5.50
2023-02-21T01:22:23.568Z,3.95
2023-02-21T01:25:09.979Z,3.00
2023-02-21T01:27:55.992Z,5.43
2023-02-21T01:30:41.806Z,2.83
2023-02-21T01:33:27.734Z,3.50
2023-02-21T01:36:13.461Z,3.22
2023-02-21T01:38:59.362Z,7.53
2023-02-21T01:41:45.675Z,5.68
2023-02-21T01:45:02.154Z,4.10
2023-02-21T01:47:49.518Z,3.92
2023-02-21T01:50:43.516Z,8.77
2023-02-21T01:53:36.570Z,4.47
2023-02-21T01:56:24.854Z,5.75
2023-02-21T01:59:13.996Z,7.82
2023-02-21T02:02:17.666Z,5.45
2023-02-21T02:05:05.615Z,9.15
2023-02-21T02:07:51.704Z,6.35
2023-02-21T02:10:37.994Z,9.32
2023-02-21T02:14:01.888Z,5.25
2023-02-21T02:16:56.756Z,4.72
2023-02-21T02:20:05.939Z,4.03
2023-02-21T02:22:36.165Z,6.38
2023-02-21T02:25:14.973Z,6.45
2023-02-21T02:27:42.747Z,2.97
2023-02-21T02:30:55.508Z,5.28
2023-02-21T02:33:34.778Z,2.85
2023-02-21T02:36:26.749Z,7.95
2023-02-21T02:38:53.999Z,6.07
2023-02-21T02:41:33.609Z,6.88
2023-02-21T02:44:15.977Z,6.45
2023-02-21T02:46:47.570Z,2.40
2023-02-21T02:49:23.191Z,7.85
2023-02-21T02:51:59.077Z,4.22
2023-02-21T02:54:33.538Z,8.50
2023-02-21T02:57:16.310Z,4.38
2023-02-21T02:59:53.188Z,4.22
2023-02-21T03:02:58.123Z,5.75
2023-02-21T03:05:41.857Z,4.22
2023-02-21T03:08:27.018Z,5.45
2023-02-21T03:11:16.348Z,6.30
2023-02-21T03:13:46.168Z,5.60
2023-02-21T03:16:28.821Z,5.47
2023-02-21T03:19:08.060Z,8.43
2023-02-21T03:21:43.718Z,4.90
2023-02-21T03:24:13.972Z,4.38
2023-02-21T03:26:45.012Z,3.35
2023-02-21T03:29:39.706Z,4.20
2023-02-21T03:32:25.564Z,4.85
2023-02-21T03:34:54.191Z,7.90
2023-02-21T03:37:45.353Z,4.90
2023-02-21T03:40:29.082Z,6.38
2023-02-21T03:42:59.789Z,6.53
2023-02-21T03:45:30.394Z,4.43
2023-02-21T03:48:08.947Z,7.93
2023-02-21T03:50:38.051Z,5.35
2023-02-21T03:53:06.186Z,7.95
2023-02-21T03:55:34.919Z,7.45
2023-02-21T03:58:06.702Z,4.18
2023-02-21T04:00:36.226Z,4.55
2023-02-21T04:03:03.755Z,5.38
2023-02-21T04:05:37.815Z,5.30
2023-02-21T04:08:06.189Z,4.55
2023-02-21T04:10:40.626Z,6.80
2023-02-21T04:13:14.510Z,5.85
2023-02-21T04:15:45.864Z,5.13
2023-02-21T04:18:13.663Z,7.30
2023-02-21T04:20:41.513Z,5.30
2023-02-21T04:23:13.663Z,6.47
2023-02-21T04:25:41.098Z,4.13
2023-02-21T04:28:15.457Z,5.18
2023-02-21T04:30:42.855Z,5.95
2023-02-21T04:33:10.295Z,3.35
2023-02-21T04:35:37.588Z,9.23
2023-02-21T04:38:12.960Z,7.55
2023-02-21T04:40:40.556Z,7.38
2023-02-21T04:43:08.061Z,8.30
2023-02-21T04:45:35.306Z,6.40
2023-02-21T04:48:02.682Z,3.55
2023-02-21T04:50:29.975Z,4.32
2023-02-21T04:52:57.292Z,9.80
2023-02-21T04:55:24.543Z,6.45
2023-02-21T04:57:51.894Z,4.75
2023-02-21T05:00:20.157Z,6.15
2023-02-21T05:02:47.615Z,7.30
2023-02-21T05:05:14.926Z,7.10
2023-02-21T05:07:43.160Z,6.82
2023-02-21T05:10:11.177Z,4.65
2023-02-21T05:12:40.015Z,7.13
2023-02-21T05:15:08.928Z,9.98
2023-02-21T05:17:36.400Z,7.05
2023-02-21T05:20:04.648Z,7.82
2023-02-21T05:22:31.976Z,5.07
2023-02-21T05:24:59.295Z,4.47
2023-02-21T05:27:26.636Z,7.13
2023-02-21T05:29:54.398Z,7.53
2023-02-21T05:32:22.851Z,6.53
2023-02-21T05:34:50.386Z,6.40
2023-02-21T05:37:21.375Z,7.47
2023-02-21T05:39:49.184Z,8.30
2023-02-21T05:42:16.631Z,9.25
2023-02-21T05:44:47.927Z,5.90
2023-02-21T05:47:16.140Z,6.97
2023-02-21T05:49:44.064Z,7.72
2023-02-21T05:52:13.535Z,8.35
2023-02-21T05:54:40.804Z,9.15
2023-02-21T05:57:08.119Z,7.93
2023-02-21T05:59:35.572Z,7.10
2023-02-21T06:02:02.919Z,12.40
2023-02-21T06:04:30.205Z,13.38
2023-02-21T06:06:57.481Z,13.20
2023-02-21T06:09:24.804Z,11.50
2023-02-21T06:11:55.685Z,8.40
2023-02-21T06:14:22.923Z,9.10
2023-02-21T06:16:50.271Z,7.35
2023-02-21T06:19:19.076Z,6.78
2023-02-21T06:21:46.533Z,14.40
2023-02-21T06:24:13.917Z,7.80
2023-02-21T06:26:45.138Z,9.02
2023-02-21T06:29:12.660Z,12.80
2023-02-21T06:31:40.079Z,10.18
2023-02-21T06:34:07.686Z,7.13
2023-02-21T06:36:35.940Z,9.10
2023-02-21T06:39:03.965Z,6.22
2023-02-21T06:41:32.190Z,8.10
2023-02-21T06:43:59.860Z,10.95
2023-02-21T06:46:29.785Z,9.38
2023-02-21T06:48:58.073Z,9.02
2023-02-21T06:51:29.963Z,13.70
2023-02-21T06:53:58.548Z,9.95
2023-02-21T06:56:27.398Z,10.38
2023-02-21T06:58:55.090Z,10.48
2023-02-21T07:01:23.411Z,10.20
2023-02-21T07:03:51.182Z,10.18
2023-02-21T07:06:18.797Z,9.25
2023-02-21T07:08:46.646Z,9.35
2023-02-21T07:11:14.934Z,10.05
2023-02-21T07:13:42.590Z,10.10
2023-02-21T07:16:11.670Z,11.35
2023-02-21T07:18:39.087Z,10.13
2023-02-21T07:21:06.572Z,9.20
2023-02-21T07:23:33.932Z,7.25
2023-02-21T07:26:01.282Z,8.85
2023-02-21T07:28:28.803Z,7.00
2023-02-21T07:30:56.210Z,10.00
2023-02-21T07:33:23.514Z,10.27
2023-02-21T07:35:50.870Z,8.40
2023-02-21T07:38:26.948Z,13.35
2023-02-21T07:41:02.025Z,11.02
2023-02-21T07:43:31.147Z,10.73
2023-02-21T07:45:58.898Z,13.35
2023-02-21T07:48:26.446Z,9.95
2023-02-21T07:50:53.874Z,11.60
2023-02-21T07:53:21.359Z,10.35
2023-02-21T07:55:48.692Z,9.35
2023-02-21T07:58:16.216Z,10.40
2023-02-21T08:00:43.538Z,11.63
2023-02-21T08:03:13.840Z,11.77
2023-02-21T08:05:41.731Z,13.85
2023-02-21T08:08:10.518Z,12.38
2023-02-21T08:10:38.388Z,13.32
2023-02-21T08:13:06.223Z,13.65
2023-02-21T08:15:33.608Z,11.65
2023-02-21T08:18:01.041Z,16.48
2023-02-21T08:20:28.544Z,13.80
2023-02-21T08:22:55.807Z,13.38
2023-02-21T08:25:23.159Z,12.55
2023-02-21T08:27:54.871Z,17.20
2023-02-21T08:30:23.313Z,14.53
2023-02-21T08:32:51.499Z,13.00
2023-02-21T08:35:20.609Z,18.95
2023-02-21T08:37:49.801Z,16.25
2023-02-21T08:40:22.021Z,11.55
2023-02-21T08:42:51.087Z,18.13
2023-02-21T08:45:20.618Z,11.48
2023-02-21T08:47:48.183Z,11.23
2023-02-21T08:50:15.759Z,15.38
2023-02-21T08:52:43.182Z,14.55
2023-02-21T08:55:10.578Z,14.20
2023-02-21T08:57:37.914Z,15.27
2023-02-21T09:00:10.597Z,18.35
2023-02-21T09:05:12.322Z,15.02
2023-02-21T09:07:39.735Z,14.23
2023-02-21T09:10:10.024Z,13.60
2023-02-21T09:12:40.658Z,12.48
2023-02-21T09:15:09.241Z,13.93
2023-02-21T09:17:36.761Z,12.35
2023-02-21T09:20:07.807Z,15.82
2023-02-21T09:22:35.521Z,15.80
2023-02-21T09:25:03.836Z,10.57
2023-02-21T09:27:36.908Z,13.02
2023-02-21T09:30:11.156Z,14.55
2023-02-21T09:32:39.909Z,9.77
2023-02-21T09:35:08.137Z,12.57
2023-02-21T09:37:39.280Z,12.30
2023-02-21T09:40:35.135Z,14.13
2023-02-21T09:43:04.443Z,12.20
2023-02-21T09:45:34.746Z,11.55
2023-02-21T09:48:07.992Z,9.05
2023-02-21T09:50:42.345Z,12.75
2023-02-21T09:53:11.805Z,13.48
2023-02-21T09:55:40.796Z,9.55
2023-02-21T09:58:16.209Z,8.43
2023-02-21T10:00:46.479Z,10.73
2023-02-21T10:03:32.860Z,12.38
2023-02-21T10:06:14.387Z,8.82
2023-02-21T10:09:12.229Z,9.10
2023-02-21T10:12:20.783Z,8.13
2023-02-21T10:14:58.012Z,7.05
2023-02-21T10:17:57.839Z,10.30
2023-02-21T10:20:35.837Z,7.72
2023-02-21T10:23:07.618Z,8.60
2023-02-21T10:25:37.021Z,8.40
2023-02-21T10:28:04.516Z,9.90
2023-02-21T10:30:38.234Z,8.38
2023-02-21T10:33:06.614Z,8.50
2023-02-21T10:35:38.591Z,6.90
2023-02-21T10:38:20.733Z,9.32
2023-02-21T10:40:58.613Z,8.43
2023-02-21T10:43:37.683Z,6.57
2023-02-21T10:46:09.632Z,8.73
2023-02-21T10:48:39.084Z,13.23
2023-02-21T10:51:14.297Z,8.80
2023-02-21T10:53:48.049Z,6.90
2023-02-21T10:56:15.758Z,9.32
2023-02-21T10:58:57.149Z,7.53
2023-02-21T11:01:27.485Z,6.53
2023-02-21T11:04:01.779Z,9.63
2023-02-21T11:06:34.421Z,8.80
2023-02-21T11:09:03.324Z,8.93
2023-02-21T11:11:39.036Z,9.27
2023-02-21T11:14:18.628Z,7.13
2023-02-21T11:16:45.979Z,9.80
2023-02-21T11:19:14.836Z,9.48
2023-02-21T11:21:55.213Z,8.07
2023-02-21T11:24:22.528Z,7.57
2023-02-21T11:26:53.487Z,7.50
2023-02-21T11:29:25.887Z,6.53
2023-02-21T11:31:57.005Z,8.90
2023-02-21T11:34:29.604Z,7.32
2023-02-21T11:39:33.636Z,5.90
2023-02-21T11:42:04.378Z,8.77
2023-02-21T11:44:42.390Z,10.25
2023-02-21T11:47:21.979Z,6.57
2023-02-21T11:50:22.699Z,4.68
2023-02-21T11:52:57.109Z,8.07
2023-02-21T11:55:26.611Z,5.38
2023-02-21T11:58:25.332Z,7.07
2023-02-21T12:01:24.809Z,6.68
2023-02-21T12:04:01.565Z,5.40
2023-02-21T12:07:12.848Z,5.63
2023-02-21T12:10:04.828Z,5.97
2023-02-21T12:12:53.065Z,6.93
2023-02-21T12:15:26.483Z,6.28
2023-02-21T12:18:50.874Z,5.32
2023-02-21T12:21:24.266Z,5.35
2023-02-21T12:24:03.079Z,5.60
2023-02-21T12:26:47.853Z,6.13
2023-02-21T12:29:30.252Z,6.47
2023-02-21T12:32:29.798Z,6.20
2023-02-21T12:35:11.891Z,6.68
2023-02-21T12:38:04.575Z,5.68
2023-02-21T12:40:46.744Z,7.95
2023-02-21T12:43:31.680Z,5.70
2023-02-21T12:46:07.001Z,7.32
2023-02-21T12:49:01.777Z,7.07
2023-02-21T12:51:36.885Z,5.00
2023-02-21T12:54:12.919Z,6.30
2023-02-21T12:56:43.225Z,6.22
2023-02-21T12:59:52.869Z,8.05
2023-02-21T13:02:37.298Z,4.82
2023-02-21T13:05:13.949Z,5.63
2023-02-21T13:08:00.508Z,7.15
2023-02-21T13:10:56.412Z,7.25
2023-02-21T13:13:29.235Z,5.03
2023-02-21T13:15:57.797Z,3.35
2023-02-21T13:18:46.386Z,7.30
2023-02-21T13:21:52.732Z,5.75
2023-02-21T13:24:59.902Z,5.05
2023-02-21T13:28:03.319Z,6.55
2023-02-21T13:30:33.491Z,4.68
2023-02-21T13:33:01.560Z,5.32
2023-02-21T13:35:35.853Z,4.60
2023-02-21T13:38:10.725Z,6.05
2023-02-21T13:40:54.469Z,5.88
2023-02-21T13:43:29.677Z,7.78
2023-02-21T13:46:22.943Z,4.97
2023-02-21T13:49:37.741Z,7.72
2023-02-21T13:52:20.017Z,7.90
2023-02-21T13:55:15.213Z,5.93
2023-02-21T13:57:58.714Z,6.53
2023-02-21T14:00:25.994Z,7.60
2023-02-21T14:03:12.749Z,6.70
2023-02-21T14:05:51.950Z,6.32
2023-02-21T14:08:38.271Z,7.60
2023-02-21T14:11:05.440Z,6.15
2023-02-21T14:13:54.416Z,5.32
2023-02-21T14:16:34.373Z,5.47
2023-02-21T14:19:19.672Z,6.63
2023-02-21T14:22:04.537Z,5.47
2023-02-21T14:24:37.544Z,8.23
2023-02-21T14:27:12.870Z,5.93
2023-02-21T14:30:02.920Z,7.47
2023-02-21T14:32:45.622Z,5.53
2023-02-21T14:35:34.437Z,6.97
2023-02-21T14:38:04.818Z,5.55
2023-02-21T14:41:03.932Z,8.23
2023-02-21T14:43:47.616Z,7.00
2023-02-21T14:46:45.032Z,5.57
2023-02-21T14:49:18.337Z,6.43
2023-02-21T14:51:51.618Z,5.13
2023-02-21T14:54:40.341Z,5.40
2023-02-21T14:57:38.381Z,5.53
2023-02-21T15:00:20.562Z,6.18
2023-02-21T15:02:50.743Z,6.25
2023-02-21T15:05:34.482Z,5.93
2023-02-21T15:08:25.283Z,8.45
2023-02-21T15:10:58.118Z,11.35
2023-02-21T15:13:27.025Z,8.40
2023-02-21T15:16:06.584Z,7.82
2023-02-21T15:18:36.211Z,11.77
2023-02-21T15:21:12.613Z,9.85
2023-02-21T15:23:45.272Z,11.10
2023-02-21T15:29:13.187Z,6.63
2023-02-21T15:31:48.190Z,8.55
2023-02-21T15:34:21.947Z,7.07
2023-02-21T15:37:02.265Z,10.05
2023-02-21T15:39:33.980Z,10.23
2023-02-21T15:42:06.180Z,8.83
2023-02-21T15:44:36.783Z,10.50
2023-02-21T15:47:12.314Z,9.50
2023-02-21T15:49:46.056Z,9.73
2023-02-21T15:52:41.047Z,9.32
2023-02-21T15:55:20.748Z,10.45
2023-02-21T15:58:01.883Z,10.15
2023-02-21T16:00:40.964Z,10.30
2023-02-21T16:03:43.326Z,17.08
2023-02-21T16:06:13.209Z,10.90
2023-02-21T16:08:50.863Z,14.32
2023-02-21T16:11:19.790Z,10.30
2023-02-21T16:13:47.631Z,11.40
2023-02-21T16:16:15.145Z,10.50
2023-02-21T16:18:42.746Z,12.50
2023-02-21T16:21:28.729Z,11.00
2023-02-21T16:23:56.426Z,13.00
2023-02-21T16:26:28.869Z,11.20
2023-02-21T16:28:59.286Z,12.18
2023-02-21T16:31:32.863Z,12.18
2023-02-21T16:34:00.338Z,10.88
2023-02-21T16:36:30.582Z,12.18
2023-02-21T16:38:59.343Z,11.02
2023-02-21T16:41:27.313Z,11.82
2023-02-21T16:43:54.582Z,11.88
2023-02-21T16:46:29.415Z,12.18
2023-02-21T16:48:57.976Z,10.93
2023-02-21T16:51:25.296Z,11.00
2023-02-21T16:53:52.645Z,10.55
2023-02-21T16:56:20.003Z,12.20
2023-02-21T16:58:50.622Z,11.10
2023-02-21T17:01:29.779Z,10.57
2023-02-21T17:03:57.280Z,10.70
2023-02-21T17:06:26.376Z,14.05
2023-02-21T17:08:53.809Z,11.95
2023-02-21T17:11:21.419Z,16.52
2023-02-21T17:13:48.817Z,10.07
2023-02-21T17:16:16.149Z,11.90
2023-02-21T17:18:46.565Z,11.35
2023-02-21T17:21:14.961Z,9.93
2023-02-21T17:23:42.520Z,12.82
2023-02-21T17:26:12.337Z,15.18
2023-02-21T17:28:39.983Z,13.05
2023-02-21T17:31:07.602Z,10.15
2023-02-21T17:33:35.737Z,12.30
2023-02-21T17:36:03.216Z,12.88
2023-02-21T17:38:30.918Z,12.70
2023-02-21T17:40:58.541Z,15.48
2023-02-21T17:43:25.760Z,13.13
2023-02-21T17:45:53.107Z,12.90
2023-02-21T17:48:20.640Z,10.93
2023-02-21T17:50:47.846Z,10.55
2023-02-21T17:53:15.175Z,9.80
2023-02-21T17:55:42.535Z,14.43
2023-02-21T17:58:11.490Z,12.25
2023-02-21T18:00:39.478Z,12.65
2023-02-21T18:03:07.765Z,14.98
2023-02-21T18:05:36.205Z,13.70
2023-02-21T18:08:04.591Z,11.63
2023-02-21T18:10:31.973Z,13.30
2023-02-21T18:12:59.748Z,12.85
2023-02-21T18:15:29.025Z,17.65
2023-02-21T18:17:59.213Z,17.10
2023-02-21T18:20:26.549Z,15.07
2023-02-21T18:22:53.955Z,14.90
2023-02-21T18:25:23.540Z,12.52
2023-02-21T18:27:51.949Z,11.65
2023-02-21T18:30:19.743Z,13.65
2023-02-21T18:32:47.193Z,13.70
2023-02-21T18:35:16.341Z,13.20
2023-02-21T18:37:47.302Z,15.32
2023-02-21T18:40:18.700Z,14.93
2023-02-21T18:42:47.954Z,15.77
2023-02-21T18:45:15.318Z,16.38
2023-02-21T18:47:42.930Z,13.27
2023-02-21T18:50:10.626Z,16.17
2023-02-21T18:52:37.978Z,12.68
2023-02-21T18:55:06.265Z,18.15
2023-02-21T18:57:34.429Z,15.88
2023-02-21T19:00:01.867Z,17.20
2023-02-21T19:02:29.250Z,15.55
2023-02-21T19:04:56.578Z,14.02
2023-02-21T19:07:23.841Z,13.70
2023-02-21T19:09:51.194Z,15.00
2023-02-21T19:12:18.927Z,17.52
2023-02-21T19:14:46.304Z,12.52
2023-02-21T19:17:13.697Z,16.38
2023-02-21T19:19:41.144Z,17.35
2023-02-21T19:22:08.553Z,12.98
2023-02-21T19:24:35.871Z,14.70
2023-02-21T19:27:04.423Z,16.90
2023-02-21T19:29:31.839Z,14.95
2023-02-21T19:31:59.234Z,15.95
2023-02-21T19:34:26.688Z,16.10
2023-02-21T19:36:54.054Z,17.95
2023-02-21T19:39:21.960Z,16.45
2023-02-21T19:41:51.971Z,13.40
2023-02-21T19:44:19.552Z,16.13
2023-02-21T19:46:46.999Z,14.50
2023-02-21T19:49:22.258Z,17.02
2023-02-21T19:51:52.785Z,17.92
2023-02-21T19:54:23.169Z,15.45
2023-02-21T19:56:50.924Z,16.52
2023-02-21T19:59:19.304Z,17.40
2023-02-21T20:01:46.620Z,18.75
2023-02-21T20:04:16.832Z,15.90
2023-02-21T20:06:45.556Z,22.20
2023-02-21T20:09:13.010Z,21.10
2023-02-21T20:11:40.926Z,23.58
2023-02-21T20:14:09.714Z,19.67
2023-02-21T20:16:42.501Z,15.25
2023-02-21T20:19:15.001Z,17.15
2023-02-21T20:21:44.049Z,17.57
2023-02-21T20:24:12.368Z,17.88
2023-02-21T20:26:39.900Z,15.20
2023-02-21T20:29:08.786Z,17.08
2023-02-21T20:31:37.822Z,16.75
2023-02-21T20:34:07.231Z,17.25
2023-02-21T20:36:38.202Z,14.98
2023-02-21T20:39:09.661Z,16.80
2023-02-21T20:41:40.735Z,15.48
2023-02-21T20:44:08.031Z,15.23
2023-02-21T20:46:37.245Z,15.07
2023-02-21T20:49:07.316Z,16.45
2023-02-21T20:51:39.247Z,13.20
2023-02-21T20:54:11.203Z,15.45
2023-02-21T20:56:42.130Z,14.68
2023-02-21T20:59:16.051Z,16.40
2023-02-21T21:01:53.825Z,17.35
2023-02-21T21:04:28.494Z,14.65
2023-02-21T21:06:58.506Z,17.42
2023-02-21T21:09:34.812Z,15.13
2023-02-21T21:12:04.597Z,17.45
2023-02-21T21:14:34.246Z,16.13
2023-02-21T21:17:02.854Z,13.20
2023-02-21T21:19:34.475Z,17.58
2023-02-21T21:22:04.103Z,15.63
2023-02-21T21:24:32.245Z,14.15
2023-02-21T21:27:08.716Z,14.60
2023-02-21T21:29:38.004Z,15.05
2023-02-21T21:32:06.078Z,14.82
2023-02-21T21:34:33.689Z,15.90
2023-02-21T21:37:03.867Z,14.60
2023-02-21T21:39:31.736Z,16.58
2023-02-21T21:42:05.535Z,17.13
2023-02-21T21:44:33.159Z,14.65
2023-02-21T21:47:01.238Z,14.70
2023-02-21T21:49:35.014Z,14.77
2023-02-21T21:52:04.648Z,15.55
2023-02-21T21:54:36.244Z,14.38
2023-02-21T21:57:05.623Z,16.73
2023-02-21T21:59:33.406Z,15.15
2023-02-21T22:02:00.670Z,15.32
2023-02-21T22:04:28.290Z,15.35
2023-02-21T22:06:56.928Z,18.98
2023-02-21T22:09:25.822Z,15.45
2023-02-21T22:11:53.890Z,15.88
2023-02-21T22:14:22.993Z,14.68
2023-02-21T22:16:53.269Z,15.88
2023-02-21T22:19:23.044Z,14.90
2023-02-21T22:21:54.820Z,13.57
2023-02-21T22:24:24.549Z,13.63
2023-02-21T22:26:53.944Z,13.93
2023-02-21T22:29:22.656Z,15.77
2023-02-21T22:31:52.131Z,15.50
2023-02-21T22:34:26.231Z,13.10
2023-02-21T22:36:55.464Z,12.25
2023-02-21T22:39:24.029Z,13.15
2023-02-21T22:41:51.929Z,16.30
2023-02-21T22:44:19.713Z,14.40
2023-02-21T22:46:58.538Z,15.85
2023-02-21T22:49:30.841Z,14.18
2023-02-21T22:51:58.209Z,16.23
2023-02-21T22:54:26.675Z,15.95
2023-02-21T22:56:55.138Z,15.50
2023-02-21T22:59:26.828Z,14.07
2023-02-21T23:01:54.544Z,18.45
2023-02-21T23:04:27.657Z,17.25
2023-02-21T23:06:57.392Z,17.88
2023-02-21T23:09:26.568Z,17.65
2023-02-21T23:11:56.885Z,17.63
2023-02-21T23:14:24.681Z,18.63
2023-02-21T23:16:56.846Z,17.13
2023-02-21T23:19:25.311Z,17.58
2023-02-21T23:21:53.755Z,17.85
2023-02-21T23:24:22.555Z,15.68
2023-02-21T23:26:54.878Z,17.65
2023-02-21T23:29:25.761Z,16.20
2023-02-21T23:31:58.116Z,17.48
2023-02-21T23:34:40.657Z,15.30
2023-02-21T23:37:12.493Z,19.25
2023-02-21T23:39:41.078Z,14.07
2023-02-21T23:42:11.296Z,13.25
2023-02-21T23:44:38.905Z,16.13
2023-02-21T23:47:06.285Z,17.52
2023-02-21T23:49:33.648Z,16.27
2023-02-21T23:52:02.125Z,15.52
2023-02-21T23:54:29.613Z,13.40
2023-02-21T23:57:00.823Z,16.58
2023-02-21T23:59:32.186Z,18.70
